Terminal Aerodrome Forecast
Issued by NWS Tulsa, OK

Home | Current Version | Previous Version | Text Only | Print | Product List | Glossary On
Versions: 1 2 3 4 5 6 7 8 9 10 11 12 13
357
FTUS44 KTSA 250520
TAFTUL
TAF
KTUL 250520Z 2506/2606 34008KT P6SM BKN120
     FM251000 34010KT 6SM -SHRA OVC040
     FM251200 34012KT 4SM -RA BR OVC015
     FM251400 33009KT 2SM -RA BR OVC007
     FM260000 33009KT 3SM BR OVC007=

USA.gov is the U.S. government's official web portal to all federal, state and local government web resources and services.